createdAt,value
2018-08-16T00:00:58.014Z,62.23
2018-08-16T00:03:27.168Z,61.85
2018-08-16T00:05:56.366Z,62.16
2018-08-16T00:08:25.545Z,61.91
2018-08-16T00:10:54.710Z,62.36
2018-08-16T00:13:23.914Z,61.58
2018-08-16T00:15:53.060Z,62.41
2018-08-16T00:18:22.230Z,62.15
2018-08-16T00:20:51.379Z,62.27
2018-08-16T00:23:20.550Z,62.17
2018-08-16T00:25:49.702Z,62.53
2018-08-16T00:28:19.519Z,62.48
2018-08-16T00:30:49.606Z,63.13
2018-08-16T00:33:19.699Z,62.89
2018-08-16T00:35:49.747Z,62.24
2018-08-16T00:38:19.880Z,61.84
2018-08-16T00:40:49.991Z,62.57
2018-08-16T00:43:20.134Z,62.64
2018-08-16T00:45:50.294Z,62.42
2018-08-16T00:48:19.474Z,62.22
2018-08-16T00:50:48.623Z,62.46
2018-08-16T00:53:17.802Z,63.05
2018-08-16T00:55:46.955Z,62.49
2018-08-16T00:58:16.182Z,62.26
2018-08-16T01:00:45.374Z,63.53
2018-08-16T01:03:14.539Z,62.54
2018-08-16T01:05:43.675Z,63.14
2018-08-16T01:08:12.823Z,63.21
2018-08-16T01:10:42.035Z,63.52
2018-08-16T01:13:11.191Z,63.62
2018-08-16T01:15:40.338Z,63.39
2018-08-16T01:18:09.663Z,63.89
2018-08-16T01:20:38.807Z,63.32
2018-08-16T01:23:07.959Z,63.41
2018-08-16T01:25:37.142Z,63.77
2018-08-16T01:28:06.319Z,62.71
2018-08-16T01:30:35.478Z,63.26
2018-08-16T01:33:04.908Z,63.14
2018-08-16T01:35:34.093Z,62.83
2018-08-16T01:38:03.299Z,62.72
2018-08-16T01:40:32.506Z,62.84
2018-08-16T01:43:01.832Z,63.17
2018-08-16T01:45:30.969Z,62.53
2018-08-16T01:48:00.125Z,63.31
2018-08-16T01:50:29.268Z,63.27
2018-08-16T01:52:58.409Z,63.15
2018-08-16T01:55:27.662Z,63.49
2018-08-16T01:57:56.805Z,62.99
2018-08-16T02:00:25.959Z,62.74
2018-08-16T02:02:55.226Z,63.27
2018-08-16T02:05:24.390Z,62.63
2018-08-16T02:07:53.594Z,62.79
2018-08-16T02:10:22.813Z,62.89
2018-08-16T02:12:51.979Z,63.24
2018-08-16T02:15:21.122Z,62.71
2018-08-16T02:17:50.278Z,64.24
2018-08-16T02:20:19.421Z,62.99
2018-08-16T02:22:48.632Z,63.18
2018-08-16T02:25:17.771Z,62.78
2018-08-16T02:27:46.910Z,62.51
2018-08-16T02:30:16.082Z,62.76
2018-08-16T02:32:45.294Z,63.47
2018-08-16T02:35:14.507Z,63.52
2018-08-16T02:37:43.756Z,62.66
2018-08-16T02:40:12.930Z,62.81
2018-08-16T02:42:42.175Z,63.05
2018-08-16T02:45:11.313Z,63.16
2018-08-16T02:47:40.701Z,63.54
2018-08-16T02:50:09.843Z,64.04
2018-08-16T02:52:39.002Z,63.79
2018-08-16T02:55:08.339Z,63.76
2018-08-16T02:57:37.491Z,64.27
2018-08-16T03:00:08.617Z,64.73
2018-08-16T03:02:37.773Z,63.80
2018-08-16T03:05:07.210Z,64.41
2018-08-16T03:07:36.721Z,63.93
2018-08-16T03:10:07.371Z,63.97
2018-08-16T03:12:36.543Z,64.01
2018-08-16T03:15:07.939Z,63.94
2018-08-16T03:17:37.190Z,64.79
2018-08-16T03:20:06.818Z,63.14
2018-08-16T03:22:36.038Z,62.72
2018-08-16T03:25:05.278Z,62.47
2018-08-16T03:27:34.466Z,63.62
2018-08-16T03:30:03.651Z,63.75
2018-08-16T03:32:32.877Z,64.39
2018-08-16T03:35:02.022Z,63.94
2018-08-16T03:37:31.238Z,64.74
2018-08-16T03:40:00.377Z,64.71
2018-08-16T03:42:29.530Z,64.18
2018-08-16T03:44:58.675Z,63.97
2018-08-16T03:47:27.830Z,63.73
2018-08-16T03:49:57.093Z,65.20
2018-08-16T03:52:26.312Z,64.62
2018-08-16T03:54:55.443Z,64.55
2018-08-16T03:57:24.629Z,64.70
2018-08-16T03:59:53.822Z,64.32
2018-08-16T04:02:23.062Z,64.79
2018-08-16T04:04:52.208Z,64.59
2018-08-16T04:07:21.341Z,65.11
2018-08-16T04:09:50.567Z,65.19
2018-08-16T04:12:19.971Z,65.03
2018-08-16T04:14:49.883Z,64.92
2018-08-16T04:17:19.087Z,65.17
2018-08-16T04:19:48.226Z,64.40
2018-08-16T04:22:17.426Z,64.86
2018-08-16T04:24:46.671Z,65.69
2018-08-16T04:27:16.029Z,64.65
2018-08-16T04:29:45.457Z,64.80
2018-08-16T04:32:14.637Z,65.53
2018-08-16T04:34:44.012Z,65.18
2018-08-16T04:37:13.180Z,64.86
2018-08-16T04:39:42.619Z,64.22
2018-08-16T04:42:11.867Z,64.61
2018-08-16T04:44:41.179Z,64.38
2018-08-16T04:47:10.329Z,64.56
2018-08-16T04:49:39.473Z,65.54
2018-08-16T04:52:08.920Z,65.10
2018-08-16T04:54:38.089Z,65.30
2018-08-16T04:57:07.418Z,65.49
2018-08-16T04:59:36.756Z,65.50
2018-08-16T05:02:05.914Z,64.81
2018-08-16T05:04:35.129Z,65.27
2018-08-16T05:07:04.322Z,65.61
2018-08-16T05:09:33.454Z,65.59
2018-08-16T05:12:02.735Z,64.97
2018-08-16T05:14:31.855Z,65.51
2018-08-16T05:17:01.010Z,64.73
2018-08-16T05:19:30.278Z,64.81
2018-08-16T05:22:00.188Z,66.34
2018-08-16T05:24:30.023Z,65.00
2018-08-16T05:27:00.061Z,65.42
2018-08-16T05:29:30.282Z,65.06
2018-08-16T05:32:00.363Z,65.42
2018-08-16T05:34:34.278Z,65.07
2018-08-16T05:37:03.453Z,66.15
2018-08-16T05:39:32.683Z,66.15
2018-08-16T05:42:01.933Z,66.14
2018-08-16T05:44:31.247Z,65.80
2018-08-16T05:47:00.394Z,66.32
2018-08-16T05:49:30.804Z,66.21
2018-08-16T05:52:01.055Z,65.15
2018-08-16T05:54:31.167Z,65.68
2018-08-16T05:57:01.339Z,65.54
2018-08-16T05:59:31.515Z,64.93
2018-08-16T06:02:01.414Z,65.24
2018-08-16T06:04:31.795Z,64.91
2018-08-16T06:07:01.623Z,65.52
2018-08-16T06:09:31.845Z,65.75
2018-08-16T06:12:01.957Z,65.09
2018-08-16T06:14:32.167Z,63.79
2018-08-16T06:17:02.055Z,63.80
2018-08-16T06:19:32.221Z,64.19
2018-08-16T06:22:02.466Z,64.55
2018-08-16T06:24:32.406Z,64.37
2018-08-16T06:27:02.486Z,63.64
2018-08-16T06:29:31.701Z,64.14
2018-08-16T06:32:00.836Z,63.56
2018-08-16T06:34:30.046Z,63.39
2018-08-16T06:36:59.190Z,63.04
2018-08-16T06:39:28.606Z,62.91
2018-08-16T06:41:57.763Z,63.57
2018-08-16T06:44:26.956Z,63.13
2018-08-16T06:46:56.181Z,63.43
2018-08-16T06:49:25.350Z,62.87
2018-08-16T06:51:54.483Z,62.31
2018-08-16T06:54:23.700Z,62.25
2018-08-16T06:56:52.955Z,63.06
2018-08-16T06:59:22.203Z,62.80
2018-08-16T07:01:51.343Z,62.83
2018-08-16T07:04:20.496Z,61.73
2018-08-16T07:06:49.742Z,61.05
2018-08-16T07:09:18.945Z,60.69
2018-08-16T07:11:48.082Z,60.97
2018-08-16T07:14:17.247Z,60.19
2018-08-16T07:16:47.366Z,60.34
2018-08-16T07:19:16.534Z,59.63
2018-08-16T07:21:45.691Z,59.62
2018-08-16T07:24:14.890Z,59.88
2018-08-16T07:26:44.011Z,59.56
2018-08-16T07:29:13.314Z,57.49
2018-08-16T07:31:42.486Z,58.19
2018-08-16T07:34:11.630Z,57.27
2018-08-16T07:36:40.755Z,57.15
2018-08-16T07:39:11.157Z,56.49
2018-08-16T07:41:40.414Z,54.71
2018-08-16T07:44:10.223Z,55.71
2018-08-16T07:46:39.374Z,54.60
2018-08-16T07:49:08.515Z,54.52
2018-08-16T07:51:37.897Z,55.10
2018-08-16T07:54:06.836Z,53.56
2018-08-16T07:56:35.995Z,53.82
2018-08-16T07:59:05.169Z,52.89
2018-08-16T08:01:34.459Z,51.46
2018-08-16T08:04:03.750Z,53.50
2018-08-16T08:06:32.907Z,51.10
2018-08-16T08:09:02.153Z,50.34
2018-08-16T08:11:31.251Z,49.47
2018-08-16T08:14:01.196Z,49.48
2018-08-16T08:16:30.369Z,47.94
2018-08-16T08:18:59.510Z,45.74
2018-08-16T08:21:28.669Z,47.81
2018-08-16T08:23:57.806Z,47.31
2018-08-16T08:26:26.953Z,46.94
2018-08-16T08:28:56.090Z,46.65
2018-08-16T08:31:25.233Z,47.49
2018-08-16T08:33:54.714Z,44.89
2018-08-16T08:36:41.194Z,47.00
2018-08-16T08:39:10.850Z,44.85
2018-08-16T08:41:40.061Z,44.71
2018-08-16T08:44:19.406Z,45.95
2018-08-16T08:46:49.882Z,45.25
2018-08-16T08:49:19.205Z,43.95
2018-08-16T08:51:49.142Z,43.50
2018-08-16T08:54:48.864Z,44.77
2018-08-16T08:57:49.666Z,45.01
2018-08-16T09:00:18.816Z,44.74
2018-08-16T09:02:47.950Z,45.98
2018-08-16T09:05:17.094Z,43.62
2018-08-16T09:07:46.231Z,42.89
2018-08-16T09:12:34.443Z,40.73
2018-08-16T09:15:20.810Z,40.95
2018-08-16T09:22:52.122Z,39.49
2018-08-16T09:25:22.086Z,38.85
2018-08-16T09:27:51.989Z,37.67
2018-08-16T09:30:39.786Z,38.52
2018-08-16T09:33:26.407Z,37.17
2018-08-16T09:35:55.610Z,37.51
2018-08-16T09:38:24.987Z,38.86
2018-08-16T09:40:54.222Z,39.05
2018-08-16T09:43:23.615Z,38.25
2018-08-16T09:47:09.695Z,38.17
2018-08-16T09:49:44.553Z,38.51
2018-08-16T09:52:14.783Z,39.66
2018-08-16T09:54:49.831Z,37.21
2018-08-16T09:57:19.281Z,38.13
2018-08-16T09:59:48.474Z,38.74
2018-08-16T10:02:18.490Z,37.96
2018-08-16T10:04:47.680Z,37.18
2018-08-16T10:07:17.543Z,37.74
2018-08-16T10:09:46.793Z,35.70
2018-08-16T10:12:16.130Z,37.09
2018-08-16T10:14:53.143Z,36.08
2018-08-16T10:17:22.398Z,33.90
2018-08-16T10:19:51.719Z,34.47
2018-08-16T10:22:20.874Z,35.21
2018-08-16T10:24:50.498Z,35.23
2018-08-16T10:27:19.704Z,35.75
2018-08-16T10:29:48.860Z,35.77
2018-08-16T10:32:18.070Z,35.25
2018-08-16T10:35:06.109Z,34.29
2018-08-16T10:37:35.341Z,36.21
2018-08-16T10:40:04.629Z,36.63
2018-08-16T10:42:35.882Z,36.54
2018-08-16T10:45:05.858Z,36.01
2018-08-16T10:47:35.019Z,34.95
2018-08-16T10:50:04.607Z,34.41
2018-08-16T10:52:33.778Z,34.74
2018-08-16T10:55:02.926Z,35.00
2018-08-16T10:57:32.093Z,35.30
2018-08-16T11:00:02.071Z,34.07
2018-08-16T11:02:32.166Z,34.39
2018-08-16T11:05:02.191Z,33.32
2018-08-16T11:07:33.293Z,32.50
2018-08-16T11:10:02.406Z,33.34
2018-08-16T11:12:31.602Z,32.69
2018-08-16T11:15:00.735Z,33.71
2018-08-16T11:17:30.119Z,33.76
2018-08-16T11:19:59.366Z,33.57
2018-08-16T11:22:28.618Z,33.43
2018-08-16T11:24:58.899Z,32.06
2018-08-16T11:27:28.079Z,33.75
2018-08-16T11:29:57.263Z,32.75
2018-08-16T11:32:26.622Z,31.11
2018-08-16T11:34:55.834Z,32.52
2018-08-16T11:37:25.023Z,33.86
2018-08-16T11:39:54.186Z,32.84
2018-08-16T11:42:23.414Z,34.35
2018-08-16T11:44:52.606Z,31.09
2018-08-16T11:47:21.820Z,31.38
2018-08-16T11:49:51.001Z,32.80
2018-08-16T11:52:20.159Z,31.75
2018-08-16T11:54:49.518Z,33.42
2018-08-16T11:57:18.670Z,31.34
2018-08-16T11:59:47.844Z,34.19
2018-08-16T12:02:17.097Z,32.75
2018-08-16T12:04:46.167Z,30.72
2018-08-16T12:07:16.802Z,29.48
2018-08-16T12:09:45.945Z,29.84
2018-08-16T12:12:16.166Z,31.01
2018-08-16T12:14:46.263Z,30.77
2018-08-16T12:17:16.611Z,31.24
2018-08-16T12:19:46.382Z,31.21
2018-08-16T12:22:17.439Z,31.42
2018-08-16T12:24:46.616Z,30.61
2018-08-16T12:27:17.249Z,29.87
2018-08-16T12:29:46.559Z,31.11
2018-08-16T12:32:16.508Z,31.11
2018-08-16T12:34:46.704Z,30.08
2018-08-16T12:37:16.638Z,30.14
2018-08-16T12:39:46.683Z,28.99
2018-08-16T12:42:16.848Z,29.21
2018-08-16T12:44:45.883Z,30.64
2018-08-16T12:47:15.049Z,29.91
2018-08-16T12:49:44.188Z,29.78
2018-08-16T12:52:13.517Z,30.56
2018-08-16T12:54:42.670Z,29.52
2018-08-16T12:57:11.850Z,29.78
2018-08-16T12:59:41.007Z,28.97
2018-08-16T13:02:10.153Z,29.64
2018-08-16T13:04:39.326Z,29.35
2018-08-16T13:07:08.467Z,29.87
2018-08-16T13:09:37.623Z,30.17
2018-08-16T13:12:06.811Z,29.64
2018-08-16T13:14:36.015Z,29.21
2018-08-16T13:17:05.511Z,28.48
2018-08-16T13:19:34.663Z,28.83
2018-08-16T13:22:03.832Z,29.09
2018-08-16T13:24:33.018Z,28.47
2018-08-16T13:27:02.444Z,28.01
2018-08-16T13:29:31.599Z,29.04
2018-08-16T13:32:00.762Z,29.84
2018-08-16T13:34:29.923Z,29.71
2018-08-16T13:36:59.328Z,28.86
2018-08-16T13:39:28.443Z,30.11
2018-08-16T13:41:57.602Z,29.29
2018-08-16T13:44:26.755Z,28.15
2018-08-16T13:46:55.937Z,28.30
2018-08-16T13:49:25.106Z,27.26
2018-08-16T13:51:54.226Z,28.57
2018-08-16T13:54:23.842Z,28.92
2018-08-16T13:56:53.849Z,29.87
2018-08-16T14:04:27.401Z,29.20
2018-08-16T14:06:56.538Z,29.40
2018-08-16T14:09:25.727Z,27.94
2018-08-16T14:11:54.932Z,29.70
2018-08-16T14:14:24.330Z,27.14
2018-08-16T14:16:54.491Z,28.09
2018-08-16T14:19:24.587Z,28.33
2018-08-16T14:21:54.528Z,28.36
2018-08-16T14:24:24.661Z,28.66
2018-08-16T14:26:54.675Z,29.15
2018-08-16T14:29:24.943Z,28.86
2018-08-16T14:31:54.802Z,30.36
2018-08-16T14:39:28.463Z,29.63
2018-08-16T14:41:57.638Z,30.97
2018-08-16T14:44:26.797Z,29.93
2018-08-16T14:46:56.005Z,29.81
2018-08-16T14:49:25.646Z,29.85
2018-08-16T14:51:55.963Z,30.55
2018-08-16T14:54:25.911Z,29.58
2018-08-16T14:56:55.894Z,30.72
2018-08-16T14:59:25.978Z,29.87
2018-08-16T15:01:55.943Z,29.55
2018-08-16T15:04:25.913Z,29.54
2018-08-16T15:06:56.114Z,29.84
2018-08-16T15:09:26.141Z,30.29
2018-08-16T15:11:56.158Z,31.20
2018-08-16T15:14:26.230Z,29.75
2018-08-16T15:16:56.395Z,31.32
2018-08-16T15:19:26.359Z,30.50
2018-08-16T15:21:56.502Z,29.94
2018-08-16T15:24:26.535Z,30.03
2018-08-16T15:26:56.654Z,30.65
2018-08-16T15:29:26.677Z,30.26
2018-08-16T15:31:56.834Z,30.33
2018-08-16T15:34:26.769Z,31.24
2018-08-16T15:36:56.914Z,30.92
2018-08-16T15:39:27.013Z,30.60
2018-08-16T15:41:57.043Z,30.05
2018-08-16T15:44:27.113Z,29.97
2018-08-16T15:46:57.169Z,30.28
2018-08-16T15:49:27.274Z,30.63
2018-08-16T15:51:57.475Z,30.24
2018-08-16T15:54:27.430Z,29.04
2018-08-16T15:56:57.519Z,29.92
2018-08-16T16:04:24.703Z,30.91
2018-08-16T16:06:53.850Z,30.64
2018-08-16T16:09:22.993Z,31.46
2018-08-16T16:11:52.181Z,31.22
2018-08-16T16:14:21.322Z,31.29
2018-08-16T16:16:50.464Z,30.18
2018-08-16T16:19:19.595Z,30.77
2018-08-16T16:21:48.738Z,30.53
2018-08-16T16:24:17.950Z,30.67
2018-08-16T16:26:47.198Z,30.87
2018-08-16T16:29:16.345Z,31.22
2018-08-16T16:31:46.250Z,31.31
2018-08-16T16:34:15.390Z,31.68
2018-08-16T16:36:44.534Z,32.06
2018-08-16T16:39:13.831Z,31.37
2018-08-16T16:41:43.148Z,32.57
2018-08-16T16:44:12.460Z,32.20
2018-08-16T16:46:41.633Z,32.68
2018-08-16T16:49:10.782Z,33.06
2018-08-16T16:51:39.935Z,33.42
2018-08-16T16:54:09.117Z,33.81
2018-08-16T16:56:38.459Z,33.76
2018-08-16T16:59:07.897Z,33.05
2018-08-16T17:01:37.046Z,33.70
2018-08-16T17:04:06.514Z,33.88
2018-08-16T17:06:35.634Z,32.49
2018-08-16T17:09:06.835Z,33.25
2018-08-16T17:11:35.982Z,33.59
2018-08-16T17:14:05.155Z,34.24
2018-08-16T17:16:34.282Z,34.87
2018-08-16T17:19:03.423Z,34.39
2018-08-16T17:21:32.590Z,34.41
2018-08-16T17:24:01.786Z,34.24
2018-08-16T17:26:31.113Z,33.99
2018-08-16T17:29:00.708Z,34.26
2018-08-16T17:31:30.722Z,34.09
2018-08-16T17:34:00.837Z,35.27
2018-08-16T17:36:31.106Z,35.22
2018-08-16T17:39:01.297Z,35.12
2018-08-16T17:47:05.059Z,35.35
2018-08-16T17:49:34.193Z,35.26
2018-08-16T17:52:03.369Z,35.87
2018-08-16T17:54:32.493Z,35.27
2018-08-16T17:57:02.158Z,35.27
2018-08-16T17:59:32.295Z,35.36
2018-08-16T18:02:02.286Z,36.57
2018-08-16T18:04:32.426Z,35.59
2018-08-16T18:07:02.675Z,35.99
2018-08-16T18:09:32.722Z,35.99
2018-08-16T18:12:02.673Z,37.13
2018-08-16T18:14:32.801Z,36.28
2018-08-16T18:17:02.834Z,37.67
2018-08-16T18:19:32.970Z,37.52
2018-08-16T18:22:02.959Z,38.47
2018-08-16T18:24:33.191Z,37.83
2018-08-16T18:27:03.187Z,38.90
2018-08-16T18:29:33.314Z,39.50
2018-08-16T18:32:04.514Z,40.21
2018-08-16T18:34:34.252Z,40.07
2018-08-16T18:37:04.175Z,40.43
2018-08-16T18:39:33.762Z,40.52
2018-08-16T18:42:03.930Z,39.68
2018-08-16T18:44:33.892Z,38.40
2018-08-16T18:47:03.950Z,38.31
2018-08-16T18:49:34.078Z,38.91
2018-08-16T18:52:04.133Z,39.18
2018-08-16T18:54:34.270Z,39.65
2018-08-16T18:57:04.315Z,39.34
2018-08-16T18:59:34.490Z,40.45
2018-08-16T19:02:04.475Z,40.29
2018-08-16T19:04:34.673Z,41.13
2018-08-16T19:07:04.689Z,40.36
2018-08-16T19:09:34.779Z,40.69
2018-08-16T19:12:04.840Z,40.86
2018-08-16T19:14:34.970Z,42.01
2018-08-16T19:17:05.125Z,43.17
2018-08-16T19:19:35.096Z,42.49
2018-08-16T19:22:05.230Z,43.88
2018-08-16T19:24:35.333Z,44.15
2018-08-16T19:27:06.066Z,44.41
2018-08-16T19:29:35.746Z,45.08
2018-08-16T19:32:05.710Z,44.72
2018-08-16T19:34:35.718Z,44.64
2018-08-16T19:37:06.123Z,45.87
2018-08-16T19:39:36.005Z,46.11
2018-08-16T19:42:06.030Z,45.30
2018-08-16T19:44:36.055Z,46.10
2018-08-16T19:47:06.254Z,46.68
2018-08-16T19:49:36.376Z,47.52
2018-08-16T19:52:06.611Z,45.98
2018-08-16T19:54:36.574Z,45.45
2018-08-16T19:57:06.966Z,44.87
2018-08-16T19:59:36.667Z,44.07
2018-08-16T20:02:06.815Z,44.59
2018-08-16T20:04:36.970Z,44.75
2018-08-16T20:07:07.431Z,44.88
2018-08-16T20:09:37.147Z,45.76
2018-08-16T20:12:07.306Z,45.88
2018-08-16T20:14:36.558Z,46.13
2018-08-16T20:17:05.754Z,46.24
2018-08-16T20:19:35.029Z,45.52
2018-08-16T20:22:04.447Z,45.43
2018-08-16T20:24:33.659Z,46.35
2018-08-16T20:27:02.902Z,46.31
2018-08-16T20:29:32.042Z,46.20
2018-08-16T20:32:01.252Z,45.49
2018-08-16T20:34:30.453Z,47.19
2018-08-16T20:36:59.646Z,46.16
2018-08-16T20:39:28.857Z,46.68
2018-08-16T20:41:58.120Z,46.69
2018-08-16T20:44:27.254Z,46.62
2018-08-16T20:46:56.501Z,47.70
2018-08-16T20:49:26.116Z,47.26
2018-08-16T20:51:55.354Z,46.57
2018-08-16T20:54:25.003Z,47.81
2018-08-16T20:56:54.176Z,48.58
2018-08-16T20:59:23.603Z,48.35
2018-08-16T21:01:52.786Z,47.87
2018-08-16T21:04:22.034Z,47.52
2018-08-16T21:06:51.170Z,48.33
2018-08-16T21:09:20.321Z,48.27
2018-08-16T21:11:49.550Z,48.32
2018-08-16T21:14:18.782Z,47.58
2018-08-16T21:16:48.010Z,47.40
2018-08-16T21:19:17.142Z,48.12
2018-08-16T21:21:46.582Z,47.89
2018-08-16T21:24:15.754Z,48.07
2018-08-16T21:26:44.930Z,48.82
2018-08-16T21:29:14.103Z,48.48
2018-08-16T21:31:43.950Z,48.46
2018-08-16T21:34:15.154Z,48.28
2018-08-16T21:36:44.338Z,48.86
2018-08-16T21:39:14.389Z,47.84
2018-08-16T21:41:44.298Z,48.51
2018-08-16T21:44:14.375Z,48.71
2018-08-16T21:46:44.464Z,48.37
2018-08-16T21:49:14.630Z,48.33
2018-08-16T21:51:44.610Z,49.17
2018-08-16T21:54:14.773Z,48.62
2018-08-16T21:56:44.695Z,48.86
2018-08-16T21:59:14.649Z,49.86
2018-08-16T22:01:44.746Z,49.86
2018-08-16T22:04:14.791Z,50.32
2018-08-16T22:07:03.891Z,49.83
2018-08-16T22:09:33.055Z,50.49
2018-08-16T22:12:02.258Z,49.80
2018-08-16T22:14:31.605Z,50.86
2018-08-16T22:17:00.738Z,51.01
2018-08-16T22:19:30.002Z,50.49
2018-08-16T22:21:59.246Z,50.35
2018-08-16T22:24:28.403Z,50.77
2018-08-16T22:26:57.588Z,51.22
2018-08-16T22:29:26.863Z,51.32
2018-08-16T22:31:56.657Z,50.55
2018-08-16T22:34:25.879Z,51.00
2018-08-16T22:36:55.019Z,50.92
2018-08-16T22:39:24.175Z,51.37
2018-08-16T22:41:53.333Z,51.75
2018-08-16T22:44:23.757Z,52.13
2018-08-16T22:46:52.897Z,52.20
2018-08-16T22:49:22.031Z,51.18
2018-08-16T22:51:51.237Z,51.54
2018-08-16T22:54:20.320Z,51.57
2018-08-16T22:56:49.476Z,52.21
2018-08-16T22:59:18.611Z,52.48
2018-08-16T23:01:47.763Z,52.54
2018-08-16T23:04:16.923Z,52.48
2018-08-16T23:06:46.046Z,52.03
2018-08-16T23:09:16.002Z,52.56
2018-08-16T23:11:46.058Z,52.25
2018-08-16T23:14:16.106Z,52.45
2018-08-16T23:16:46.169Z,52.24
2018-08-16T23:19:16.230Z,52.34
2018-08-16T23:21:46.403Z,52.07
2018-08-16T23:24:16.393Z,52.19
2018-08-16T23:26:46.430Z,52.02
2018-08-16T23:29:16.489Z,53.14
2018-08-16T23:31:46.698Z,53.44
2018-08-16T23:34:16.682Z,53.05
2018-08-16T23:36:46.759Z,53.08
2018-08-16T23:39:16.769Z,53.01
2018-08-16T23:41:47.270Z,53.25
2018-08-16T23:44:16.849Z,53.45
2018-08-16T23:46:46.883Z,52.83
2018-08-16T23:49:16.983Z,53.09
2018-08-16T23:51:47.722Z,52.63
2018-08-16T23:54:17.042Z,52.64
2018-08-16T23:56:47.130Z,52.77
2018-08-16T23:59:17.163Z,52.81
